sensor_id;sensor_type;location;lat;lon;timestamp;temperature;humidity
33328;DHT22;19692;52.998;9.116;2023-03-01T00:03:33;-2.10;99.90
33328;DHT22;19692;52.998;9.116;2023-03-01T00:05:59;-2.10;99.90
33328;DHT22;19692;52.998;9.116;2023-03-01T00:08:26;-2.10;99.90
33328;DHT22;19692;52.998;9.116;2023-03-01T00:11:05;-2.10;99.90
33328;DHT22;19692;52.998;9.116;2023-03-01T00:13:32;-2.10;99.90
33328;DHT22;19692;52.998;9.116;2023-03-01T00:15:58;-2.10;99.90
33328;DHT22;19692;52.998;9.116;2023-03-01T00:18:23;-2.20;99.90
33328;DHT22;19692;52.998;9.116;2023-03-01T00:20:53;-2.20;99.90
33328;DHT22;19692;52.998;9.116;2023-03-01T00:23:20;-2.20;99.90
33328;DHT22;19692;52.998;9.116;2023-03-01T00:25:46;-2.20;99.90
33328;DHT22;19692;52.998;9.116;2023-03-01T00:28:12;-2.20;99.90
33328;DHT22;19692;52.998;9.116;2023-03-01T00:30:38;-2.30;99.90
33328;DHT22;19692;52.998;9.116;2023-03-01T00:33:04;-2.20;99.90
33328;DHT22;19692;52.998;9.116;2023-03-01T00:35:32;-2.30;99.90
33328;DHT22;19692;52.998;9.116;2023-03-01T00:37:59;-2.30;99.90
33328;DHT22;19692;52.998;9.116;2023-03-01T00:40:25;-2.30;99.90
33328;DHT22;19692;52.998;9.116;2023-03-01T00:42:52;-2.30;99.90
33328;DHT22;19692;52.998;9.116;2023-03-01T00:45:17;-2.30;99.90
33328;DHT22;19692;52.998;9.116;2023-03-01T00:47:43;-2.20;99.90
33328;DHT22;19692;52.998;9.116;2023-03-01T00:50:10;-2.30;99.90
33328;DHT22;19692;52.998;9.116;2023-03-01T00:52:36;-2.20;99.90
33328;DHT22;19692;52.998;9.116;2023-03-01T00:55:07;-2.30;99.90
33328;DHT22;19692;52.998;9.116;2023-03-01T00:57:38;-2.20;99.90
33328;DHT22;19692;52.998;9.116;2023-03-01T01:00:05;-2.30;99.90
33328;DHT22;19692;52.998;9.116;2023-03-01T01:02:33;-2.30;99.90
33328;DHT22;19692;52.998;9.116;2023-03-01T01:04:59;-2.40;99.90
33328;DHT22;19692;52.998;9.116;2023-03-01T01:07:24;-2.40;99.90
33328;DHT22;19692;52.998;9.116;2023-03-01T01:09:50;-2.30;99.90
33328;DHT22;19692;52.998;9.116;2023-03-01T01:12:16;-2.40;99.90
33328;DHT22;19692;52.998;9.116;2023-03-01T01:14:42;-2.40;99.90
33328;DHT22;19692;52.998;9.116;2023-03-01T01:17:07;-2.40;99.90
33328;DHT22;19692;52.998;9.116;2023-03-01T01:19:33;-2.30;99.90
33328;DHT22;19692;52.998;9.116;2023-03-01T01:21:59;-2.40;99.90
33328;DHT22;19692;52.998;9.116;2023-03-01T01:24:24;-2.30;99.90
33328;DHT22;19692;52.998;9.116;2023-03-01T01:26:51;-2.40;99.90
33328;DHT22;19692;52.998;9.116;2023-03-01T01:29:17;-2.40;99.90
33328;DHT22;19692;52.998;9.116;2023-03-01T01:31:43;-2.50;99.90
33328;DHT22;19692;52.998;9.116;2023-03-01T01:34:14;-2.50;99.90
33328;DHT22;19692;52.998;9.116;2023-03-01T01:36:42;-2.60;99.90
33328;DHT22;19692;52.998;9.116;2023-03-01T01:39:08;-2.60;99.90
33328;DHT22;19692;52.998;9.116;2023-03-01T01:41:39;-2.60;99.90
33328;DHT22;19692;52.998;9.116;2023-03-01T01:47:09;-2.60;99.90
33328;DHT22;19692;52.998;9.116;2023-03-01T01:52:21;-2.60;99.90
33328;DHT22;19692;52.998;9.116;2023-03-01T01:55:08;-2.60;99.90
33328;DHT22;19692;52.998;9.116;2023-03-01T01:57:40;-2.70;99.90
33328;DHT22;19692;52.998;9.116;2023-03-01T02:00:23;-2.70;99.90
33328;DHT22;19692;52.998;9.116;2023-03-01T02:02:58;-2.70;99.90
33328;DHT22;19692;52.998;9.116;2023-03-01T02:08:15;-2.70;99.90
33328;DHT22;19692;52.998;9.116;2023-03-01T02:10:43;-2.80;99.90
33328;DHT22;19692;52.998;9.116;2023-03-01T02:13:09;-2.80;99.90
33328;DHT22;19692;52.998;9.116;2023-03-01T02:15:37;-2.80;99.90
33328;DHT22;19692;52.998;9.116;2023-03-01T02:18:07;-2.80;99.90
33328;DHT22;19692;52.998;9.116;2023-03-01T02:21:03;-2.70;99.90
33328;DHT22;19692;52.998;9.116;2023-03-01T02:23:34;-2.70;99.90
33328;DHT22;19692;52.998;9.116;2023-03-01T02:26:07;-2.80;99.90
33328;DHT22;19692;52.998;9.116;2023-03-01T02:28:38;-2.80;99.90
33328;DHT22;19692;52.998;9.116;2023-03-01T02:31:07;-2.80;99.90
33328;DHT22;19692;52.998;9.116;2023-03-01T02:33:54;-2.80;99.90
33328;DHT22;19692;52.998;9.116;2023-03-01T02:36:24;-2.90;99.90
33328;DHT22;19692;52.998;9.116;2023-03-01T02:38:54;-2.80;99.90
33328;DHT22;19692;52.998;9.116;2023-03-01T02:41:23;-2.90;99.90
33328;DHT22;19692;52.998;9.116;2023-03-01T02:43:49;-3.00;99.90
33328;DHT22;19692;52.998;9.116;2023-03-01T02:46:21;-3.00;99.90
33328;DHT22;19692;52.998;9.116;2023-03-01T02:48:51;-3.00;99.90
33328;DHT22;19692;52.998;9.116;2023-03-01T02:54:30;-3.00;99.90
33328;DHT22;19692;52.998;9.116;2023-03-01T02:57:00;-3.10;99.90
33328;DHT22;19692;52.998;9.116;2023-03-01T02:59:31;-3.10;99.90
33328;DHT22;19692;52.998;9.116;2023-03-01T03:02:05;-3.10;99.90
33328;DHT22;19692;52.998;9.116;2023-03-01T03:04:31;-3.00;99.90
33328;DHT22;19692;52.998;9.116;2023-03-01T03:06:57;-3.00;99.90
33328;DHT22;19692;52.998;9.116;2023-03-01T03:09:23;-3.00;99.90
33328;DHT22;19692;52.998;9.116;2023-03-01T03:11:49;-2.90;99.90
33328;DHT22;19692;52.998;9.116;2023-03-01T03:14:16;-3.00;99.90
33328;DHT22;19692;52.998;9.116;2023-03-01T03:16:47;-2.90;99.90
33328;DHT22;19692;52.998;9.116;2023-03-01T03:19:15;-2.90;99.90
33328;DHT22;19692;52.998;9.116;2023-03-01T03:21:42;-2.90;99.90
33328;DHT22;19692;52.998;9.116;2023-03-01T03:24:08;-3.00;99.90
33328;DHT22;19692;52.998;9.116;2023-03-01T03:26:34;-3.00;99.90
33328;DHT22;19692;52.998;9.116;2023-03-01T03:29:00;-3.00;99.90
33328;DHT22;19692;52.998;9.116;2023-03-01T03:31:26;-3.00;99.90
33328;DHT22;19692;52.998;9.116;2023-03-01T03:33:52;-3.10;99.90
33328;DHT22;19692;52.998;9.116;2023-03-01T03:36:20;-3.10;99.90
33328;DHT22;19692;52.998;9.116;2023-03-01T03:38:47;-3.10;99.90
33328;DHT22;19692;52.998;9.116;2023-03-01T03:41:14;-3.10;99.90
33328;DHT22;19692;52.998;9.116;2023-03-01T03:43:41;-3.10;99.90
33328;DHT22;19692;52.998;9.116;2023-03-01T03:46:10;-3.10;99.90
33328;DHT22;19692;52.998;9.116;2023-03-01T03:48:41;-3.10;99.90
33328;DHT22;19692;52.998;9.116;2023-03-01T03:51:13;-3.10;99.90
33328;DHT22;19692;52.998;9.116;2023-03-01T03:53:41;-3.10;99.90
33328;DHT22;19692;52.998;9.116;2023-03-01T03:56:08;-3.10;99.90
33328;DHT22;19692;52.998;9.116;2023-03-01T03:58:34;-3.10;99.90
33328;DHT22;19692;52.998;9.116;2023-03-01T04:01:00;-3.10;99.90
33328;DHT22;19692;52.998;9.116;2023-03-01T04:03:30;-3.10;99.90
33328;DHT22;19692;52.998;9.116;2023-03-01T04:05:58;-3.20;99.90
33328;DHT22;19692;52.998;9.116;2023-03-01T04:08:24;-3.20;99.90
33328;DHT22;19692;52.998;9.116;2023-03-01T04:10:52;-3.20;99.90
33328;DHT22;19692;52.998;9.116;2023-03-01T04:13:23;-3.10;99.90
33328;DHT22;19692;52.998;9.116;2023-03-01T04:15:51;-3.20;99.90
33328;DHT22;19692;52.998;9.116;2023-03-01T04:18:19;-3.20;99.90
33328;DHT22;19692;52.998;9.116;2023-03-01T04:20:46;-3.20;99.90
33328;DHT22;19692;52.998;9.116;2023-03-01T04:23:16;-3.30;99.90
33328;DHT22;19692;52.998;9.116;2023-03-01T04:28:47;-3.40;99.90
33328;DHT22;19692;52.998;9.116;2023-03-01T04:31:18;-3.50;99.90
33328;DHT22;19692;52.998;9.116;2023-03-01T04:33:54;-3.50;99.90
33328;DHT22;19692;52.998;9.116;2023-03-01T04:36:26;-3.50;99.90
33328;DHT22;19692;52.998;9.116;2023-03-01T04:38:53;-3.50;99.90
33328;DHT22;19692;52.998;9.116;2023-03-01T04:41:21;-3.60;99.90
33328;DHT22;19692;52.998;9.116;2023-03-01T04:43:48;-3.50;99.90
33328;DHT22;19692;52.998;9.116;2023-03-01T04:46:17;-3.50;99.90
33328;DHT22;19692;52.998;9.116;2023-03-01T04:48:44;-3.40;99.90
33328;DHT22;19692;52.998;9.116;2023-03-01T04:51:11;-3.40;99.90
33328;DHT22;19692;52.998;9.116;2023-03-01T04:53:41;-3.40;99.90
33328;DHT22;19692;52.998;9.116;2023-03-01T04:56:08;-3.40;99.90
33328;DHT22;19692;52.998;9.116;2023-03-01T04:58:34;-3.40;99.90
33328;DHT22;19692;52.998;9.116;2023-03-01T05:00:59;-3.50;99.90
33328;DHT22;19692;52.998;9.116;2023-03-01T05:03:25;-3.50;99.90
33328;DHT22;19692;52.998;9.116;2023-03-01T05:05:52;-3.50;99.90
33328;DHT22;19692;52.998;9.116;2023-03-01T05:08:18;-3.50;99.90
33328;DHT22;19692;52.998;9.116;2023-03-01T05:10:45;-3.50;99.90
33328;DHT22;19692;52.998;9.116;2023-03-01T05:13:13;-3.50;99.90
33328;DHT22;19692;52.998;9.116;2023-03-01T05:15:46;-3.50;99.90
33328;DHT22;19692;52.998;9.116;2023-03-01T05:18:13;-3.50;99.90
33328;DHT22;19692;52.998;9.116;2023-03-01T05:20:39;-3.50;99.90
33328;DHT22;19692;52.998;9.116;2023-03-01T05:23:05;-3.60;99.90
33328;DHT22;19692;52.998;9.116;2023-03-01T05:25:33;-3.60;99.90
33328;DHT22;19692;52.998;9.116;2023-03-01T05:28:00;-3.60;99.90
33328;DHT22;19692;52.998;9.116;2023-03-01T05:30:30;-3.60;99.90
33328;DHT22;19692;52.998;9.116;2023-03-01T05:32:58;-3.70;99.90
33328;DHT22;19692;52.998;9.116;2023-03-01T05:35:24;-3.60;99.90
33328;DHT22;19692;52.998;9.116;2023-03-01T05:37:50;-3.50;99.90
33328;DHT22;19692;52.998;9.116;2023-03-01T05:40:21;-3.60;99.90
33328;DHT22;19692;52.998;9.116;2023-03-01T05:42:52;-3.70;99.90
33328;DHT22;19692;52.998;9.116;2023-03-01T05:45:20;-3.70;99.90
33328;DHT22;19692;52.998;9.116;2023-03-01T05:47:48;-3.70;99.90
33328;DHT22;19692;52.998;9.116;2023-03-01T05:50:18;-3.60;99.90
33328;DHT22;19692;52.998;9.116;2023-03-01T05:52:50;-3.70;99.90
33328;DHT22;19692;52.998;9.116;2023-03-01T05:55:20;-3.70;99.90
33328;DHT22;19692;52.998;9.116;2023-03-01T05:57:47;-3.70;99.90
33328;DHT22;19692;52.998;9.116;2023-03-01T06:00:14;-3.70;99.90
33328;DHT22;19692;52.998;9.116;2023-03-01T06:02:41;-3.70;99.90
33328;DHT22;19692;52.998;9.116;2023-03-01T06:05:09;-3.70;99.90
33328;DHT22;19692;52.998;9.116;2023-03-01T06:07:36;-3.70;99.90
33328;DHT22;19692;52.998;9.116;2023-03-01T06:10:06;-3.60;99.90
33328;DHT22;19692;52.998;9.116;2023-03-01T06:12:35;-3.70;99.90
33328;DHT22;19692;52.998;9.116;2023-03-01T06:15:02;-3.60;99.90
33328;DHT22;19692;52.998;9.116;2023-03-01T06:17:31;-3.60;99.90
33328;DHT22;19692;52.998;9.116;2023-03-01T06:19:58;-3.60;99.90
33328;DHT22;19692;52.998;9.116;2023-03-01T06:22:24;-3.60;99.90
33328;DHT22;19692;52.998;9.116;2023-03-01T06:24:49;-3.60;99.90
33328;DHT22;19692;52.998;9.116;2023-03-01T06:27:15;-3.60;99.90
33328;DHT22;19692;52.998;9.116;2023-03-01T06:29:41;-3.50;99.90
33328;DHT22;19692;52.998;9.116;2023-03-01T06:32:07;-3.50;99.90
33328;DHT22;19692;52.998;9.116;2023-03-01T06:34:33;-3.50;99.90
33328;DHT22;19692;52.998;9.116;2023-03-01T06:36:59;-3.50;99.90
33328;DHT22;19692;52.998;9.116;2023-03-01T06:39:28;-3.50;99.90
33328;DHT22;19692;52.998;9.116;2023-03-01T06:41:54;-3.50;99.90
33328;DHT22;19692;52.998;9.116;2023-03-01T06:44:19;-3.50;99.90
33328;DHT22;19692;52.998;9.116;2023-03-01T06:46:45;-3.40;99.90
33328;DHT22;19692;52.998;9.116;2023-03-01T06:49:11;-3.40;99.90
33328;DHT22;19692;52.998;9.116;2023-03-01T06:51:37;-3.40;99.90
33328;DHT22;19692;52.998;9.116;2023-03-01T06:54:04;-3.30;99.90
33328;DHT22;19692;52.998;9.116;2023-03-01T06:56:31;-3.20;99.90
33328;DHT22;19692;52.998;9.116;2023-03-01T06:58:57;-3.20;99.90
33328;DHT22;19692;52.998;9.116;2023-03-01T07:01:23;-3.10;99.90
33328;DHT22;19692;52.998;9.116;2023-03-01T07:03:49;-3.10;99.90
33328;DHT22;19692;52.998;9.116;2023-03-01T07:06:14;-2.90;99.90
33328;DHT22;19692;52.998;9.116;2023-03-01T07:08:40;-2.80;99.90
33328;DHT22;19692;52.998;9.116;2023-03-01T07:11:06;-2.70;99.90
33328;DHT22;19692;52.998;9.116;2023-03-01T07:13:32;-2.70;99.90
33328;DHT22;19692;52.998;9.116;2023-03-01T07:15:58;-2.60;99.90
33328;DHT22;19692;52.998;9.116;2023-03-01T07:18:24;-2.60;99.90
33328;DHT22;19692;52.998;9.116;2023-03-01T07:20:50;-2.70;99.90
33328;DHT22;19692;52.998;9.116;2023-03-01T07:23:16;-2.60;99.90
33328;DHT22;19692;52.998;9.116;2023-03-01T07:25:41;-2.50;99.90
33328;DHT22;19692;52.998;9.116;2023-03-01T07:28:07;-2.50;99.90
33328;DHT22;19692;52.998;9.116;2023-03-01T07:30:33;-2.40;99.90
33328;DHT22;19692;52.998;9.116;2023-03-01T07:32:59;-2.40;99.90
33328;DHT22;19692;52.998;9.116;2023-03-01T07:35:26;-2.40;99.90
33328;DHT22;19692;52.998;9.116;2023-03-01T07:37:52;-2.30;99.90
33328;DHT22;19692;52.998;9.116;2023-03-01T07:40:18;-2.20;99.90
33328;DHT22;19692;52.998;9.116;2023-03-01T07:42:44;-2.20;99.90
33328;DHT22;19692;52.998;9.116;2023-03-01T07:45:10;-2.00;99.90
33328;DHT22;19692;52.998;9.116;2023-03-01T07:47:36;-1.80;99.90
33328;DHT22;19692;52.998;9.116;2023-03-01T07:50:03;-1.70;99.90
33328;DHT22;19692;52.998;9.116;2023-03-01T07:52:29;-1.60;99.90
33328;DHT22;19692;52.998;9.116;2023-03-01T07:54:56;-1.40;99.90
33328;DHT22;19692;52.998;9.116;2023-03-01T07:57:23;-1.30;99.90
33328;DHT22;19692;52.998;9.116;2023-03-01T07:59:54;-1.20;99.90
33328;DHT22;19692;52.998;9.116;2023-03-01T08:02:19;-1.10;99.90
33328;DHT22;19692;52.998;9.116;2023-03-01T08:04:45;-0.90;99.90
33328;DHT22;19692;52.998;9.116;2023-03-01T08:07:11;-0.80;99.90
33328;DHT22;19692;52.998;9.116;2023-03-01T08:09:37;-0.60;99.90
33328;DHT22;19692;52.998;9.116;2023-03-01T08:12:04;-0.60;99.90
33328;DHT22;19692;52.998;9.116;2023-03-01T08:14:31;-0.50;99.90
33328;DHT22;19692;52.998;9.116;2023-03-01T08:16:57;-0.60;99.90
33328;DHT22;19692;52.998;9.116;2023-03-01T08:19:23;-0.50;99.90
33328;DHT22;19692;52.998;9.116;2023-03-01T08:21:49;-0.30;99.90
33328;DHT22;19692;52.998;9.116;2023-03-01T08:24:17;-0.20;99.90
33328;DHT22;19692;52.998;9.116;2023-03-01T08:26:43;-0.10;99.90
33328;DHT22;19692;52.998;9.116;2023-03-01T08:29:09;0.20;99.90
33328;DHT22;19692;52.998;9.116;2023-03-01T08:31:37;0.50;99.90
33328;DHT22;19692;52.998;9.116;2023-03-01T08:34:08;0.70;99.90
33328;DHT22;19692;52.998;9.116;2023-03-01T08:36:37;1.00;99.90
33328;DHT22;19692;52.998;9.116;2023-03-01T08:39:06;1.30;99.90
33328;DHT22;19692;52.998;9.116;2023-03-01T08:41:33;1.70;99.90
33328;DHT22;19692;52.998;9.116;2023-03-01T08:43:59;1.90;99.90
33328;DHT22;19692;52.998;9.116;2023-03-01T08:46:28;2.20;99.90
33328;DHT22;19692;52.998;9.116;2023-03-01T08:48:55;2.40;99.90
33328;DHT22;19692;52.998;9.116;2023-03-01T08:51:22;2.50;99.90
33328;DHT22;19692;52.998;9.116;2023-03-01T08:53:49;2.60;99.90
33328;DHT22;19692;52.998;9.116;2023-03-01T08:56:15;2.90;99.90
33328;DHT22;19692;52.998;9.116;2023-03-01T08:58:46;3.10;99.90
33328;DHT22;19692;52.998;9.116;2023-03-01T09:01:15;3.30;99.90
33328;DHT22;19692;52.998;9.116;2023-03-01T09:03:43;3.50;99.90
33328;DHT22;19692;52.998;9.116;2023-03-01T09:06:10;3.70;99.90
33328;DHT22;19692;52.998;9.116;2023-03-01T09:08:43;3.90;99.90
33328;DHT22;19692;52.998;9.116;2023-03-01T09:11:15;3.90;99.90
33328;DHT22;19692;52.998;9.116;2023-03-01T09:13:46;4.00;99.90
33328;DHT22;19692;52.998;9.116;2023-03-01T09:16:15;4.10;99.90
33328;DHT22;19692;52.998;9.116;2023-03-01T09:18:43;4.30;99.90
33328;DHT22;19692;52.998;9.116;2023-03-01T09:21:15;4.40;99.90
33328;DHT22;19692;52.998;9.116;2023-03-01T09:23:44;4.50;99.90
33328;DHT22;19692;52.998;9.116;2023-03-01T09:26:13;4.80;99.90
33328;DHT22;19692;52.998;9.116;2023-03-01T09:28:45;5.00;99.90
33328;DHT22;19692;52.998;9.116;2023-03-01T09:31:12;5.30;99.90
33328;DHT22;19692;52.998;9.116;2023-03-01T09:33:40;5.40;99.90
33328;DHT22;19692;52.998;9.116;2023-03-01T09:36:10;5.50;99.90
33328;DHT22;19692;52.998;9.116;2023-03-01T09:38:37;5.60;99.90
33328;DHT22;19692;52.998;9.116;2023-03-01T09:44:32;6.10;99.90
33328;DHT22;19692;52.998;9.116;2023-03-01T09:47:01;6.20;99.90
33328;DHT22;19692;52.998;9.116;2023-03-01T09:49:30;6.40;99.90
33328;DHT22;19692;52.998;9.116;2023-03-01T09:54:59;7.00;99.90
33328;DHT22;19692;52.998;9.116;2023-03-01T09:57:45;7.20;99.90
33328;DHT22;19692;52.998;9.116;2023-03-01T10:00:33;7.50;99.90
33328;DHT22;19692;52.998;9.116;2023-03-01T10:03:17;7.80;99.90
33328;DHT22;19692;52.998;9.116;2023-03-01T10:06:04;7.70;99.90
33328;DHT22;19692;52.998;9.116;2023-03-01T10:08:58;8.00;99.90
33328;DHT22;19692;52.998;9.116;2023-03-01T10:11:38;8.30;99.90
33328;DHT22;19692;52.998;9.116;2023-03-01T10:18:04;8.70;99.90
33328;DHT22;19692;52.998;9.116;2023-03-01T10:20:52;9.00;99.90
33328;DHT22;19692;52.998;9.116;2023-03-01T10:23:27;9.00;99.90
33328;DHT22;19692;52.998;9.116;2023-03-01T10:26:25;9.20;99.90
33328;DHT22;19692;52.998;9.116;2023-03-01T10:29:05;9.20;99.90
33328;DHT22;19692;52.998;9.116;2023-03-01T10:34:19;9.30;99.90
33328;DHT22;19692;52.998;9.116;2023-03-01T10:36:51;9.50;99.90
33328;DHT22;19692;52.998;9.116;2023-03-01T10:39:22;9.60;99.90
33328;DHT22;19692;52.998;9.116;2023-03-01T10:44:47;9.90;99.90
33328;DHT22;19692;52.998;9.116;2023-03-01T10:47:16;10.00;99.90
33328;DHT22;19692;52.998;9.116;2023-03-01T10:50:00;10.00;99.90
33328;DHT22;19692;52.998;9.116;2023-03-01T10:52:35;10.00;99.90
33328;DHT22;19692;52.998;9.116;2023-03-01T10:55:37;10.20;99.90
33328;DHT22;19692;52.998;9.116;2023-03-01T10:58:19;10.60;99.90
33328;DHT22;19692;52.998;9.116;2023-03-01T11:00:52;10.80;99.90
33328;DHT22;19692;52.998;9.116;2023-03-01T11:03:26;10.70;99.90
33328;DHT22;19692;52.998;9.116;2023-03-01T11:08:50;11.00;99.90
33328;DHT22;19692;52.998;9.116;2023-03-01T11:14:06;11.40;99.90
33328;DHT22;19692;52.998;9.116;2023-03-01T11:16:39;11.00;99.90
33328;DHT22;19692;52.998;9.116;2023-03-01T11:21:41;11.40;99.90
33328;DHT22;19692;52.998;9.116;2023-03-01T11:24:12;11.60;99.90
33328;DHT22;19692;52.998;9.116;2023-03-01T11:26:43;11.80;99.90
33328;DHT22;19692;52.998;9.116;2023-03-01T11:30:04;11.70;99.90
33328;DHT22;19692;52.998;9.116;2023-03-01T11:32:33;11.20;99.90
33328;DHT22;19692;52.998;9.116;2023-03-01T11:35:18;11.40;99.90
33328;DHT22;19692;52.998;9.116;2023-03-01T11:43:32;11.20;99.90
33328;DHT22;19692;52.998;9.116;2023-03-01T11:46:32;11.70;99.90
33328;DHT22;19692;52.998;9.116;2023-03-01T11:51:59;11.70;99.90
33328;DHT22;19692;52.998;9.116;2023-03-01T11:58:06;11.60;99.90
33328;DHT22;19692;52.998;9.116;2023-03-01T12:06:56;11.90;99.90
33328;DHT22;19692;52.998;9.116;2023-03-01T12:16:13;12.30;99.90
33328;DHT22;19692;52.998;9.116;2023-03-01T12:19:02;12.90;99.90
33328;DHT22;19692;52.998;9.116;2023-03-01T12:28:04;12.60;99.90
33328;DHT22;19692;52.998;9.116;2023-03-01T12:30:57;12.50;99.90
33328;DHT22;19692;52.998;9.116;2023-03-01T12:33:45;12.60;99.90
33328;DHT22;19692;52.998;9.116;2023-03-01T12:42:43;12.40;99.90
33328;DHT22;19692;52.998;9.116;2023-03-01T12:51:06;11.70;99.90
33328;DHT22;19692;52.998;9.116;2023-03-01T12:53:45;12.10;99.90
33328;DHT22;19692;52.998;9.116;2023-03-01T12:56:17;11.90;99.90
33328;DHT22;19692;52.998;9.116;2023-03-01T12:59:13;12.10;99.90
33328;DHT22;19692;52.998;9.116;2023-03-01T13:02:06;12.60;99.90
33328;DHT22;19692;52.998;9.116;2023-03-01T13:05:33;13.20;99.90
33328;DHT22;19692;52.998;9.116;2023-03-01T13:08:26;13.00;99.90
33328;DHT22;19692;52.998;9.116;2023-03-01T13:11:01;12.90;99.90
33328;DHT22;19692;52.998;9.116;2023-03-01T13:13:28;12.80;99.90
33328;DHT22;19692;52.998;9.116;2023-03-01T13:15:57;12.70;99.90
33328;DHT22;19692;52.998;9.116;2023-03-01T13:18:51;12.60;99.90
33328;DHT22;19692;52.998;9.116;2023-03-01T13:21:32;11.90;99.90
33328;DHT22;19692;52.998;9.116;2023-03-01T13:23:58;11.80;99.90
33328;DHT22;19692;52.998;9.116;2023-03-01T13:26:25;11.90;99.90
33328;DHT22;19692;52.998;9.116;2023-03-01T13:28:55;12.30;99.90
33328;DHT22;19692;52.998;9.116;2023-03-01T13:33:56;12.80;99.90
33328;DHT22;19692;52.998;9.116;2023-03-01T13:41:58;12.80;99.90
33328;DHT22;19692;52.998;9.116;2023-03-01T13:44:38;12.80;99.90
33328;DHT22;19692;52.998;9.116;2023-03-01T13:47:15;12.60;99.90
33328;DHT22;19692;52.998;9.116;2023-03-01T13:49:51;12.60;99.90
33328;DHT22;19692;52.998;9.116;2023-03-01T13:52:42;12.70;99.90
33328;DHT22;19692;52.998;9.116;2023-03-01T13:58:03;12.90;99.90
33328;DHT22;19692;52.998;9.116;2023-03-01T14:00:36;12.90;99.90
33328;DHT22;19692;52.998;9.116;2023-03-01T14:03:18;13.10;99.90
33328;DHT22;19692;52.998;9.116;2023-03-01T14:06:06;13.30;99.90
33328;DHT22;19692;52.998;9.116;2023-03-01T14:08:41;13.10;99.90
33328;DHT22;19692;52.998;9.116;2023-03-01T14:11:38;13.20;99.90
33328;DHT22;19692;52.998;9.116;2023-03-01T14:19:43;13.50;99.90
33328;DHT22;19692;52.998;9.116;2023-03-01T14:22:28;13.50;99.90
33328;DHT22;19692;52.998;9.116;2023-03-01T14:24:59;13.40;99.90
33328;DHT22;19692;52.998;9.116;2023-03-01T14:27:37;13.50;99.90
33328;DHT22;19692;52.998;9.116;2023-03-01T14:30:22;13.50;99.90
33328;DHT22;19692;52.998;9.116;2023-03-01T14:32:58;13.30;99.90
33328;DHT22;19692;52.998;9.116;2023-03-01T14:35:28;13.20;99.90
33328;DHT22;19692;52.998;9.116;2023-03-01T14:37:55;13.60;99.90
33328;DHT22;19692;52.998;9.116;2023-03-01T14:40:32;13.20;99.90
33328;DHT22;19692;52.998;9.116;2023-03-01T14:43:02;13.00;99.90
33328;DHT22;19692;52.998;9.116;2023-03-01T14:45:35;12.90;99.90
33328;DHT22;19692;52.998;9.116;2023-03-01T14:48:03;12.80;99.90
33328;DHT22;19692;52.998;9.116;2023-03-01T14:50:32;12.80;99.90
33328;DHT22;19692;52.998;9.116;2023-03-01T14:53:05;12.80;99.90
33328;DHT22;19692;52.998;9.116;2023-03-01T14:55:37;12.70;99.90
33328;DHT22;19692;52.998;9.116;2023-03-01T14:58:17;12.50;99.90
33328;DHT22;19692;52.998;9.116;2023-03-01T15:00:54;12.40;99.90
33328;DHT22;19692;52.998;9.116;2023-03-01T15:03:34;12.50;99.90
33328;DHT22;19692;52.998;9.116;2023-03-01T15:06:06;12.60;99.90
33328;DHT22;19692;52.998;9.116;2023-03-01T15:08:33;12.80;99.90
33328;DHT22;19692;52.998;9.116;2023-03-01T15:11:15;12.90;99.90
33328;DHT22;19692;52.998;9.116;2023-03-01T15:13:48;12.90;99.90
33328;DHT22;19692;52.998;9.116;2023-03-01T15:16:26;13.00;99.90
33328;DHT22;19692;52.998;9.116;2023-03-01T15:19:05;12.80;99.90
33328;DHT22;19692;52.998;9.116;2023-03-01T15:21:38;12.90;99.90
33328;DHT22;19692;52.998;9.116;2023-03-01T15:24:16;12.80;99.90
33328;DHT22;19692;52.998;9.116;2023-03-01T15:27:03;12.50;99.90
33328;DHT22;19692;52.998;9.116;2023-03-01T15:29:32;12.40;99.90
33328;DHT22;19692;52.998;9.116;2023-03-01T15:32:32;12.40;99.90
33328;DHT22;19692;52.998;9.116;2023-03-01T15:35:00;12.30;99.90
33328;DHT22;19692;52.998;9.116;2023-03-01T15:37:51;12.10;99.90
33328;DHT22;19692;52.998;9.116;2023-03-01T15:40:28;12.10;99.90
33328;DHT22;19692;52.998;9.116;2023-03-01T15:43:05;12.20;99.90
33328;DHT22;19692;52.998;9.116;2023-03-01T15:46:31;12.30;99.90
33328;DHT22;19692;52.998;9.116;2023-03-01T15:49:37;12.00;99.90
33328;DHT22;19692;52.998;9.116;2023-03-01T15:52:19;11.70;99.90
33328;DHT22;19692;52.998;9.116;2023-03-01T15:55:04;11.20;99.90
33328;DHT22;19692;52.998;9.116;2023-03-01T15:57:32;11.00;99.90
33328;DHT22;19692;52.998;9.116;2023-03-01T16:00:14;10.80;99.90
33328;DHT22;19692;52.998;9.116;2023-03-01T16:02:52;10.60;99.90
33328;DHT22;19692;52.998;9.116;2023-03-01T16:05:25;10.60;99.90
33328;DHT22;19692;52.998;9.116;2023-03-01T16:07:53;10.50;99.90
33328;DHT22;19692;52.998;9.116;2023-03-01T16:10:21;10.30;99.90
33328;DHT22;19692;52.998;9.116;2023-03-01T16:12:48;9.90;99.90
33328;DHT22;19692;52.998;9.116;2023-03-01T16:18:20;9.50;99.90
33328;DHT22;19692;52.998;9.116;2023-03-01T16:24:07;8.90;99.90
33328;DHT22;19692;52.998;9.116;2023-03-01T16:26:34;8.60;99.90
33328;DHT22;19692;52.998;9.116;2023-03-01T16:29:01;8.40;99.90
33328;DHT22;19692;52.998;9.116;2023-03-01T16:31:27;8.40;99.90
33328;DHT22;19692;52.998;9.116;2023-03-01T16:33:55;8.20;99.90
33328;DHT22;19692;52.998;9.116;2023-03-01T16:36:22;8.10;99.90
33328;DHT22;19692;52.998;9.116;2023-03-01T16:38:49;8.00;99.90
33328;DHT22;19692;52.998;9.116;2023-03-01T16:41:19;7.90;99.90
33328;DHT22;19692;52.998;9.116;2023-03-01T16:43:49;7.70;99.90
33328;DHT22;19692;52.998;9.116;2023-03-01T16:46:20;7.60;99.90
33328;DHT22;19692;52.998;9.116;2023-03-01T16:48:48;7.50;99.90
33328;DHT22;19692;52.998;9.116;2023-03-01T16:51:14;7.30;99.90
33328;DHT22;19692;52.998;9.116;2023-03-01T16:53:40;7.20;99.90
33328;DHT22;19692;52.998;9.116;2023-03-01T16:56:08;7.10;99.90
33328;DHT22;19692;52.998;9.116;2023-03-01T16:58:36;7.10;99.90
33328;DHT22;19692;52.998;9.116;2023-03-01T17:01:08;7.00;99.90
33328;DHT22;19692;52.998;9.116;2023-03-01T17:03:37;6.90;99.90
33328;DHT22;19692;52.998;9.116;2023-03-01T17:06:10;6.80;99.90
33328;DHT22;19692;52.998;9.116;2023-03-01T17:08:38;6.60;99.90
33328;DHT22;19692;52.998;9.116;2023-03-01T17:11:08;6.60;99.90
33328;DHT22;19692;52.998;9.116;2023-03-01T17:13:39;6.50;99.90
33328;DHT22;19692;52.998;9.116;2023-03-01T17:16:09;6.40;99.90
33328;DHT22;19692;52.998;9.116;2023-03-01T17:18:37;6.30;99.90
33328;DHT22;19692;52.998;9.116;2023-03-01T17:21:04;6.20;99.90
33328;DHT22;19692;52.998;9.116;2023-03-01T17:23:31;6.20;99.90
33328;DHT22;19692;52.998;9.116;2023-03-01T17:25:58;6.10;99.90
33328;DHT22;19692;52.998;9.116;2023-03-01T17:28:26;6.00;99.90
33328;DHT22;19692;52.998;9.116;2023-03-01T17:30:59;6.00;99.90
33328;DHT22;19692;52.998;9.116;2023-03-01T17:33:26;5.90;99.90
33328;DHT22;19692;52.998;9.116;2023-03-01T17:35:51;5.80;99.90
33328;DHT22;19692;52.998;9.116;2023-03-01T17:38:18;5.80;99.90
33328;DHT22;19692;52.998;9.116;2023-03-01T17:40:44;5.70;99.90
33328;DHT22;19692;52.998;9.116;2023-03-01T17:43:16;5.70;99.90
33328;DHT22;19692;52.998;9.116;2023-03-01T17:45:44;5.60;99.90
33328;DHT22;19692;52.998;9.116;2023-03-01T17:48:14;5.50;99.90